CheckWX is a tool to help pilots better visualize weather data.  It is not intended as a substitute for an official pre-flight weather briefing.

08:21:58 UTC

KGHW METAR
Glenwood Municipal Airport
Glenwood, Minnesota, USA
Current

26 mins ago

KGHW 220756Z AUTO 00000KT 1/2SM FZFG OVC060 M14/M15 A3031 RMK AO2
Observed
Feb-22 @ 07:56 UTC
Visibility
1/2 SM
Flight Rules
LIFR
Conditions
Freezing Fog
Cloud Levels
  • Overcast at 6,000' AGL
Temperature
-14°C / 7°F
Dewpoint
-15°C / 5°F
Humidity
92%
Altimeter
30.31" Hg
Pressure
1026.42 hPa
Previous

47 mins ago

KGHW 220735Z AUTO 00000KT 1/2SM FZFG OVC080 M13/M14 A3031 RMK AO2
Observed
Feb-22 @ 07:35 UTC
Visibility
1/2 SM
Flight Rules
LIFR
Conditions
Freezing Fog
Cloud Levels
  • Overcast at 8,000' AGL
Temperature
-13°C / 9°F
Dewpoint
-14°C / 7°F
Humidity
92%
Altimeter
30.31" Hg
Pressure
1026.42 hPa
Previous

1 hour ago

KGHW 220715Z AUTO 00000KT 1/2SM FZFG BKN001 BKN005 OVC080 M13/M14 A3031 RMK AO2
Observed
Feb-22 @ 07:15 UTC
Visibility
1/2 SM
Flight Rules
LIFR
Conditions
Freezing Fog
Cloud Levels
  • Broken at 100' AGL
  • Broken at 500' AGL
  • Overcast at 8,000' AGL
Temperature
-13°C / 9°F
Dewpoint
-14°C / 7°F
Humidity
92%
Altimeter
30.31" Hg
Pressure
1026.42 hPa